createdAt,value
2022-08-09T00:02:24.991Z,17.67
2022-08-09T00:06:18.309Z,17.74
2022-08-09T00:08:58.762Z,17.73
2022-08-09T00:12:05.525Z,18.06
2022-08-09T00:15:13.879Z,18.05
2022-08-09T00:18:22.631Z,17.98
2022-08-09T00:21:30.500Z,17.54
2022-08-09T00:24:36.734Z,17.81
2022-08-09T00:27:44.470Z,17.87
2022-08-09T00:30:55.869Z,17.80
2022-08-09T00:34:03.709Z,17.72
2022-08-09T00:37:10.226Z,17.88
2022-08-09T00:40:19.754Z,17.70
2022-08-09T00:44:10.022Z,17.38
2022-08-09T00:46:57.221Z,17.37
2022-08-09T00:50:14.709Z,16.98
2022-08-09T00:53:24.373Z,16.71
2022-08-09T00:56:30.964Z,16.40
2022-08-09T00:59:41.022Z,16.59
2022-08-09T01:02:59.484Z,16.55
2022-08-09T01:06:17.376Z,16.79
2022-08-09T01:09:37.266Z,16.57
2022-08-09T01:12:50.782Z,17.15
2022-08-09T01:16:02.286Z,16.90
2022-08-09T01:19:40.278Z,15.98
2022-08-09T01:24:01.930Z,16.25
2022-08-09T01:27:04.288Z,15.91
2022-08-09T01:30:35.416Z,15.98
2022-08-09T01:33:44.192Z,16.81
2022-08-09T01:36:53.558Z,17.10
2022-08-09T01:40:03.988Z,17.06
2022-08-09T01:43:13.191Z,17.03
2022-08-09T01:46:25.305Z,17.21
2022-08-09T01:49:39.153Z,17.19
2022-08-09T01:52:47.874Z,16.91
2022-08-09T01:55:58.462Z,16.75
2022-08-09T01:59:10.677Z,16.99
2022-08-09T02:02:18.505Z,15.93
2022-08-09T02:05:37.911Z,16.02
2022-08-09T02:08:58.847Z,16.10
2022-08-09T02:12:09.700Z,15.89
2022-08-09T02:15:21.935Z,15.80
2022-08-09T02:18:36.556Z,15.72
2022-08-09T02:21:48.719Z,16.51
2022-08-09T02:25:04.698Z,16.60
2022-08-09T02:28:20.524Z,16.61
2022-08-09T02:31:36.344Z,16.94
2022-08-09T02:34:51.763Z,16.85
2022-08-09T02:38:06.194Z,16.69
2022-08-09T02:41:16.833Z,16.36
2022-08-09T02:44:29.335Z,16.08
2022-08-09T02:47:57.314Z,16.12
2022-08-09T02:51:07.903Z,15.88
2022-08-09T02:54:17.027Z,16.31
2022-08-09T02:57:25.637Z,16.29
2022-08-09T03:00:33.355Z,16.10
2022-08-09T03:04:17.774Z,16.38
2022-08-09T03:07:14.274Z,16.27
2022-08-09T03:10:22.027Z,16.19
2022-08-09T03:13:43.406Z,15.77
2022-08-09T03:16:58.270Z,16.12
2022-08-09T03:20:11.643Z,15.71
2022-08-09T03:23:24.522Z,15.63
2022-08-09T03:26:32.256Z,16.45
2022-08-09T03:29:57.323Z,16.56
2022-08-09T03:33:17.503Z,16.23
2022-08-09T03:36:28.079Z,16.60
2022-08-09T03:39:37.925Z,16.44
2022-08-09T03:42:44.602Z,16.60
2022-08-09T03:46:04.855Z,16.78
2022-08-09T03:49:19.136Z,16.16
2022-08-09T03:52:31.168Z,16.54
2022-08-09T03:55:40.769Z,16.78
2022-08-09T03:58:50.228Z,16.80
2022-08-09T04:01:59.274Z,16.72
2022-08-09T04:05:21.035Z,16.71
2022-08-09T04:08:33.978Z,16.61
2022-08-09T04:11:59.925Z,16.28
2022-08-09T04:15:11.231Z,16.52
2022-08-09T04:18:21.290Z,16.68
2022-08-09T04:21:28.324Z,16.77
2022-08-09T04:24:37.518Z,16.65
2022-08-09T04:27:49.003Z,16.59
2022-08-09T04:30:55.911Z,16.61
2022-08-09T04:34:03.215Z,16.92
2022-08-09T04:37:09.752Z,17.42
2022-08-09T04:40:19.016Z,17.58
2022-08-09T04:43:27.050Z,17.67
2022-08-09T04:46:57.605Z,17.48
2022-08-09T04:49:59.876Z,18.04
2022-08-09T04:53:11.709Z,18.26
2022-08-09T04:56:21.348Z,18.37
2022-08-09T04:59:32.493Z,18.53
2022-08-09T05:02:39.928Z,18.69
2022-08-09T05:05:51.768Z,18.73
2022-08-09T05:09:00.667Z,18.86
2022-08-09T05:12:09.732Z,18.40
2022-08-09T05:15:38.320Z,18.57
2022-08-09T05:18:59.376Z,18.62
2022-08-09T05:22:06.311Z,18.69
2022-08-09T05:25:32.796Z,19.33
2022-08-09T05:28:40.759Z,19.73
2022-08-09T05:31:56.055Z,20.09
2022-08-09T05:35:02.721Z,20.07
2022-08-09T05:38:08.735Z,20.51
2022-08-09T05:41:15.153Z,20.77
2022-08-09T05:44:29.138Z,20.50
2022-08-09T05:47:51.473Z,20.61
2022-08-09T05:51:16.970Z,21.18
2022-08-09T05:54:26.019Z,21.09
2022-08-09T05:57:50.654Z,21.78
2022-08-09T06:01:00.343Z,21.91
2022-08-09T06:04:06.701Z,22.09
2022-08-09T06:07:21.346Z,22.16
2022-08-09T06:10:38.053Z,22.00
2022-08-09T06:13:44.586Z,22.28
2022-08-09T06:16:55.507Z,22.50
2022-08-09T06:20:03.594Z,22.58
2022-08-09T06:23:12.049Z,22.88
2022-08-09T06:26:28.554Z,23.28
2022-08-09T06:29:47.907Z,23.34
2022-08-09T06:33:30.614Z,23.62
2022-08-09T06:36:29.906Z,23.34
2022-08-09T06:39:48.562Z,23.60
2022-08-09T06:43:03.151Z,23.83
2022-08-09T06:46:10.983Z,23.80
2022-08-09T06:49:22.739Z,24.07
2022-08-09T06:52:48.496Z,24.07
2022-08-09T06:55:55.499Z,24.61
2022-08-09T07:00:48.977Z,24.32
2022-08-09T07:02:29.329Z,24.77
2022-08-09T07:05:53.709Z,25.08
2022-08-09T07:09:05.731Z,25.21
2022-08-09T07:12:13.749Z,24.99
2022-08-09T07:15:53.887Z,25.37
2022-08-09T07:18:51.062Z,25.91
2022-08-09T07:21:59.031Z,25.29
2022-08-09T07:25:09.845Z,26.01
2022-08-09T07:28:19.039Z,25.75
2022-08-09T07:31:25.779Z,26.36
2022-08-09T07:34:35.813Z,26.61
2022-08-09T07:37:46.165Z,26.61
2022-08-09T07:41:11.687Z,26.60
2022-08-09T07:44:24.283Z,26.94
2022-08-09T07:48:00.463Z,27.58
2022-08-09T07:52:02.513Z,27.21
2022-08-09T07:54:35.215Z,27.90
2022-08-09T07:57:46.517Z,27.50
2022-08-09T08:00:55.707Z,27.57
2022-08-09T08:04:10.427Z,27.88
2022-08-09T08:08:44.155Z,27.88
2022-08-09T08:11:03.197Z,28.30
2022-08-09T08:14:11.374Z,28.13
2022-08-09T08:17:35.089Z,26.96
2022-08-09T08:20:44.084Z,27.64
2022-08-09T08:23:55.896Z,27.90
2022-08-09T08:27:03.856Z,28.55
2022-08-09T08:30:11.509Z,28.76
2022-08-09T08:33:23.059Z,29.09
2022-08-09T08:36:30.975Z,28.74
2022-08-09T08:39:39.936Z,28.73
2022-08-09T08:42:51.931Z,28.67
2022-08-09T08:46:24.959Z,29.22
2022-08-09T08:49:46.337Z,30.06
2022-08-09T08:52:59.185Z,29.46
2022-08-09T08:56:06.804Z,29.35
2022-08-09T08:59:19.166Z,29.39
2022-08-09T09:02:30.942Z,30.19
2022-08-09T09:06:01.063Z,29.65
2022-08-09T09:09:06.881Z,30.02
2022-08-09T09:12:33.984Z,29.93
2022-08-09T09:15:41.970Z,30.16
2022-08-09T09:19:10.771Z,29.71
2022-08-09T09:22:26.914Z,29.23
2022-08-09T09:26:03.591Z,29.60
2022-08-09T09:29:11.281Z,28.95
2022-08-09T09:32:34.743Z,28.21
2022-08-09T09:36:02.002Z,28.12
2022-08-09T09:39:11.852Z,28.29
2022-08-09T09:42:25.734Z,27.96
2022-08-09T09:49:32.049Z,29.35
2022-08-09T09:52:56.913Z,29.65
2022-08-09T09:56:05.394Z,29.87
2022-08-09T09:59:13.401Z,30.14
2022-08-09T10:02:26.537Z,30.59
2022-08-09T10:06:03.910Z,30.54
2022-08-09T10:09:03.188Z,29.62
2022-08-09T10:12:31.406Z,28.86
2022-08-09T10:16:09.436Z,29.30
2022-08-09T10:19:16.084Z,29.17
2022-08-09T10:22:33.527Z,30.45
2022-08-09T10:26:04.267Z,30.77
2022-08-09T10:29:37.558Z,30.93
2022-08-09T10:32:50.550Z,29.64
2022-08-09T10:36:00.845Z,29.19
2022-08-09T10:39:15.960Z,28.82
2022-08-09T10:42:31.764Z,28.84
2022-08-09T10:45:58.524Z,30.09
2022-08-09T10:49:15.254Z,30.52
2022-08-09T10:52:44.749Z,30.39
2022-08-09T10:56:15.937Z,30.34
2022-08-09T10:59:43.058Z,30.92
2022-08-09T11:03:11.489Z,30.19
2022-08-09T11:06:26.311Z,29.38
2022-08-09T11:09:51.253Z,29.04
2022-08-09T11:13:50.995Z,28.67
2022-08-09T11:16:48.143Z,28.38
2022-08-09T11:20:10.216Z,28.68
2022-08-09T11:23:30.181Z,30.46
2022-08-09T11:26:47.225Z,30.84
2022-08-09T11:30:04.599Z,29.68
2022-08-09T11:33:32.968Z,29.04
2022-08-09T11:36:44.262Z,29.10
2022-08-09T11:40:04.332Z,28.77
2022-08-09T11:43:10.780Z,28.74
2022-08-09T11:46:32.743Z,28.71
2022-08-09T11:50:55.104Z,28.49
2022-08-09T11:53:57.620Z,29.22
2022-08-09T11:56:54.309Z,29.57
2022-08-09T12:00:11.925Z,30.31
2022-08-09T12:03:55.807Z,30.87
2022-08-09T12:06:55.536Z,30.18
2022-08-09T12:10:02.956Z,30.77
2022-08-09T12:14:08.167Z,29.90
2022-08-09T12:16:40.001Z,30.91
2022-08-09T12:19:50.799Z,30.34
2022-08-09T12:22:59.032Z,30.17
2022-08-09T12:26:05.672Z,30.92
2022-08-09T12:29:32.855Z,30.38
2022-08-09T12:32:41.009Z,30.30
2022-08-09T12:35:50.585Z,29.55
2022-08-09T12:38:56.707Z,29.25
2022-08-09T12:42:08.453Z,28.88
2022-08-09T12:45:33.821Z,28.76
2022-08-09T12:48:41.305Z,28.83
2022-08-09T12:52:01.069Z,28.92
2022-08-09T12:56:15.479Z,29.62
2022-08-09T12:58:42.671Z,29.78
2022-08-09T13:02:02.206Z,29.61
2022-08-09T13:05:10.085Z,29.53
2022-08-09T13:08:21.238Z,30.40
2022-08-09T13:11:48.895Z,31.11
2022-08-09T13:15:07.462Z,31.20
2022-08-09T13:18:17.431Z,31.41
2022-08-09T13:22:35.318Z,31.03
2022-08-09T13:25:03.527Z,30.74
2022-08-09T13:28:24.589Z,31.09
2022-08-09T13:32:15.870Z,31.30
2022-08-09T13:35:34.823Z,31.03
2022-08-09T13:38:59.120Z,32.10
2022-08-09T13:42:12.952Z,32.32
2022-08-09T13:45:20.025Z,32.70
2022-08-09T13:48:26.609Z,31.59
2022-08-09T13:51:36.371Z,32.32
2022-08-09T13:54:58.924Z,32.09
2022-08-09T13:58:11.911Z,31.24
2022-08-09T14:01:56.492Z,31.16
2022-08-09T14:04:59.696Z,31.99
2022-08-09T14:08:07.474Z,31.68
2022-08-09T14:11:17.777Z,32.06
2022-08-09T14:14:29.867Z,32.38
2022-08-09T14:18:06.464Z,32.04
2022-08-09T14:21:05.975Z,32.46
2022-08-09T14:24:21.933Z,31.33
2022-08-09T14:27:58.745Z,31.44
2022-08-09T14:31:06.498Z,31.36
2022-08-09T14:34:12.935Z,31.27
2022-08-09T14:37:28.565Z,30.33
2022-08-09T14:41:04.237Z,30.88
2022-08-09T14:44:13.990Z,30.42
2022-08-09T14:47:39.856Z,30.31
2022-08-09T14:50:49.327Z,31.46
2022-08-09T14:53:56.786Z,31.09
2022-08-09T14:57:02.921Z,30.46
2022-08-09T15:00:11.075Z,29.83
2022-08-09T15:03:21.017Z,30.15
2022-08-09T15:06:28.187Z,30.64
2022-08-09T15:10:07.481Z,30.72
2022-08-09T15:13:04.101Z,30.23
2022-08-09T15:16:11.268Z,30.13
2022-08-09T15:19:20.030Z,29.45
2022-08-09T15:22:26.542Z,29.02
2022-08-09T15:25:41.067Z,28.63
2022-08-09T15:28:54.694Z,28.49
2022-08-09T15:32:01.444Z,28.15
2022-08-09T15:35:18.210Z,27.96
2022-08-09T15:38:36.804Z,27.82
2022-08-09T15:41:47.094Z,27.82
2022-08-09T15:44:58.469Z,27.67
2022-08-09T15:48:28.522Z,27.30
2022-08-09T15:52:02.207Z,27.36
2022-08-09T15:55:01.219Z,27.29
2022-08-09T15:58:07.537Z,27.26
2022-08-09T16:01:35.407Z,27.17
2022-08-09T16:04:42.773Z,26.93
2022-08-09T16:07:51.178Z,26.93
2022-08-09T16:10:57.446Z,26.88
2022-08-09T16:14:08.135Z,26.99
2022-08-09T16:17:17.201Z,27.07
2022-08-09T16:20:27.607Z,27.29
2022-08-09T16:23:38.081Z,26.98
2022-08-09T16:26:48.919Z,27.07
2022-08-09T16:29:58.603Z,26.93
2022-08-09T16:33:10.108Z,27.00
2022-08-09T16:36:18.477Z,27.05
2022-08-09T16:39:26.340Z,26.84
2022-08-09T16:42:32.897Z,26.81
2022-08-09T16:45:43.774Z,26.89
2022-08-09T16:48:55.933Z,27.14
2022-08-09T16:52:08.053Z,26.74
2022-08-09T16:55:18.363Z,26.65
2022-08-09T16:58:25.049Z,26.70
2022-08-09T17:01:34.062Z,26.67
2022-08-09T17:04:42.828Z,26.19
2022-08-09T17:08:45.871Z,25.99
2022-08-09T17:11:19.456Z,25.93
2022-08-09T17:14:39.272Z,25.97
2022-08-09T17:18:00.434Z,25.70
2022-08-09T17:21:07.205Z,25.39
2022-08-09T17:24:28.218Z,25.16
2022-08-09T17:27:49.354Z,25.15
2022-08-09T17:31:00.751Z,24.51
2022-08-09T17:35:00.850Z,24.22
2022-08-09T17:38:11.838Z,23.97
2022-08-09T17:41:02.172Z,23.96
2022-08-09T17:44:42.472Z,24.21
2022-08-09T17:47:49.411Z,23.29
2022-08-09T17:50:59.548Z,23.35
2022-08-09T17:54:16.755Z,23.05
2022-08-09T17:58:03.836Z,22.91
2022-08-09T18:00:54.965Z,23.28
2022-08-09T18:04:03.150Z,22.97
2022-08-09T18:07:09.551Z,23.24
2022-08-09T18:10:31.114Z,23.29
2022-08-09T18:13:58.806Z,23.22
2022-08-09T18:17:06.787Z,23.21
2022-08-09T18:21:00.343Z,22.99
2022-08-09T18:24:10.418Z,22.68
2022-08-09T18:27:10.208Z,22.67
2022-08-09T18:30:40.181Z,22.24
2022-08-09T18:33:53.569Z,22.29
2022-08-09T18:37:00.288Z,22.23
2022-08-09T18:40:08.243Z,22.36
2022-08-09T18:43:15.933Z,22.14
2022-08-09T18:46:47.133Z,22.22
2022-08-09T18:49:49.740Z,22.22
2022-08-09T18:52:58.723Z,21.95
2022-08-09T18:56:06.171Z,21.77
2022-08-09T18:59:12.364Z,21.79
2022-08-09T19:02:19.690Z,21.72
2022-08-09T19:05:49.097Z,21.53
2022-08-09T19:08:55.367Z,21.59
2022-08-09T19:12:09.762Z,21.36
2022-08-09T19:15:17.058Z,21.96
2022-08-09T19:18:33.429Z,21.66
2022-08-09T19:21:51.800Z,21.62
2022-08-09T19:25:09.818Z,21.56
2022-08-09T19:28:28.575Z,21.55
2022-08-09T19:31:45.872Z,21.72
2022-08-09T19:34:53.950Z,21.51
2022-08-09T19:38:02.209Z,21.54
2022-08-09T19:41:08.595Z,21.55
2022-08-09T19:44:14.857Z,21.55
2022-08-09T19:47:27.026Z,21.42
2022-08-09T19:50:50.877Z,21.63
2022-08-09T19:54:01.992Z,21.42
2022-08-09T19:57:10.198Z,21.58
2022-08-09T20:00:17.559Z,21.47
2022-08-09T20:04:18.484Z,21.13
2022-08-09T20:06:50.707Z,21.00
2022-08-09T20:09:58.306Z,21.19
2022-08-09T20:13:15.492Z,21.09
2022-08-09T20:16:36.709Z,21.10
2022-08-09T20:19:53.807Z,21.10
2022-08-09T20:23:00.689Z,20.98
2022-08-09T20:26:13.165Z,20.91
2022-08-09T20:29:21.987Z,20.84
2022-08-09T20:32:33.836Z,20.69
2022-08-09T20:35:40.791Z,19.75
2022-08-09T20:39:28.486Z,19.60
2022-08-09T20:42:19.521Z,19.68
2022-08-09T20:45:59.419Z,19.76
2022-08-09T20:48:52.167Z,19.88
2022-08-09T20:51:58.326Z,20.08
2022-08-09T20:55:08.457Z,20.18
2022-08-09T20:58:20.238Z,20.34
2022-08-09T21:01:35.221Z,20.23
2022-08-09T21:05:52.070Z,20.07
2022-08-09T21:08:20.246Z,20.05
2022-08-09T21:14:54.574Z,19.90
2022-08-09T21:18:23.812Z,18.66
2022-08-09T21:21:52.983Z,18.47
2022-08-09T21:25:14.005Z,18.45
2022-08-09T21:28:20.848Z,18.90
2022-08-09T21:31:49.103Z,18.59
2022-08-09T21:34:56.855Z,18.55
2022-08-09T21:38:03.314Z,18.71
2022-08-09T21:41:10.117Z,18.34
2022-08-09T21:44:34.045Z,18.69
2022-08-09T21:47:43.887Z,18.79
2022-08-09T21:50:56.911Z,19.02
2022-08-09T21:54:03.283Z,18.94
2022-08-09T21:57:37.534Z,18.95
2022-08-09T22:00:37.212Z,18.77
2022-08-09T22:03:58.964Z,18.70
2022-08-09T22:07:06.704Z,18.71
2022-08-09T22:10:15.063Z,18.66
2022-08-09T22:13:31.389Z,18.52
2022-08-09T22:16:40.551Z,17.40
2022-08-09T22:19:58.492Z,17.06
2022-08-09T22:23:10.600Z,17.17
2022-08-09T22:26:33.910Z,17.87
2022-08-09T22:29:48.456Z,18.09
2022-08-09T22:32:56.028Z,17.73
2022-08-09T22:36:05.939Z,17.57
2022-08-09T22:39:46.689Z,17.27
2022-08-09T22:42:42.358Z,17.06
2022-08-09T22:48:10.308Z,16.97
2022-08-09T22:49:15.584Z,17.76
2022-08-09T22:52:23.282Z,17.68
2022-08-09T22:56:05.824Z,16.87
2022-08-09T22:58:57.271Z,16.58
2022-08-09T23:02:03.462Z,17.44
2022-08-09T23:05:10.129Z,17.29
2022-08-09T23:08:35.123Z,17.25
2022-08-09T23:11:41.659Z,16.96
2022-08-09T23:14:47.694Z,17.24
2022-08-09T23:18:00.283Z,17.10
2022-08-09T23:21:06.639Z,15.84
2022-08-09T23:24:14.302Z,15.63
2022-08-09T23:27:20.547Z,16.23
2022-08-09T23:30:26.798Z,15.50
2022-08-09T23:33:33.187Z,15.66
2022-08-09T23:36:39.609Z,16.11
2022-08-09T23:39:47.448Z,16.09
2022-08-09T23:42:54.079Z,16.18
2022-08-09T23:46:00.710Z,16.78
2022-08-09T23:49:07.157Z,17.26
2022-08-09T23:52:13.308Z,17.19
2022-08-09T23:55:24.139Z,17.41
2022-08-09T23:58:32.056Z,17.49
